Hlavní strana
METAR-TAF:

METAR-TAF

Letiště :

Ancona, Itálie

zeměpisná šířka: 43-37N, zeměpisná délka: 013-22E, výška: 12 m

Aktuální stav počasí

Zpráva byla vytvořena před 6 hodinami a 13 minutami, v 22:50 UTC
Jihojihozápadní vítr 5 kt
Teplota 9°C
Vlhkost vzduchu 76%
Tlak 1017 hPa
Viditelnost 10 km a více
Polojasno ve výšce 3000 ft
Oblačno až skoro zataženo ve výšce 6000 ft

METAR: LIPY 172250Z 21005KT 9999 SCT030 BKN060 09/05 Q1017

Čas: 06:03 (05:03 UTC)

Předpověď počasí

Zpráva byla vytvořena před 6 hodinami a 3 minutami, v 23:00 UTC
Předpověď platná od 18 v 00 UTC do 18 v 24 UTC
vítr z různých směrů 5 kt
Viditelnost: 6000 m
Polojasno ve výšce 3000 ft
Dočasný
od 18 v 00 UTC do 18 v 21 UTC
Viditelnost: 3000 m
déšť
Změna
od 18 v 04 UTC do 18 v 06 UTC
Východní vítr 12 kt

TAF: LIPY 172300Z 1800/1824 VRB05KT 6000 SCT030 TEMPO 1800/1821 3000 RA BECMG 1804/1806 08012KT

Stav a předpovědi počasí z více než 4 000 letišť (zprávy METAR a TAF).

Červené a žluté tečky na mapě představují dostupné meteorologické stanice.

Když kurzor umístíte na tečku, zobrazí se název stanice.

Pak kliknutím zobrazíte stav a předpověď počasí.

Chcete-li změnit mapu, kliknutím na zelené tlačítko se znaménkem +mapu přiblížíte, kliknutím na zelené tlačítko se znaménkem – mapu oddálíte a kliknutím na zelené šipky přejdete na sousední mapy.


METAR-TAF: